Hauptseite
METAR-TAF:

METAR-TAF

Flughäfen :

Düsseldorf Airport

Düsseldorf, Deutschland

Breite: 51-18N, Länge: 006-46E, Höhe: 45 m

Beobachtung

Neuester Wetterbericht von vor 30 Minuten, um 04:20 UTC
Wind 9 kt aus Süd/Südost
Temperatur 7°C
Luftfeuchtigkeit 87%
Luftdruck 1022 hPa
Sichtweite 10 km oder mehr
keine Wolken unter 1500 m und keine Kumulonimbus oder Gewitterwolken

METAR: EDDL 180420Z 15009KT CAVOK 07/05 Q1022 NOSIG

Zeit: 06:50 (04:50 UTC)

Prognose

Neuester Wetterbericht von vor 5 Stunden und 50 Minuten, um 23:00 UTC
Gültige Prognose vom 18 um 00 UTC bis 19 um 06 UTC
Wind 10 kt aus Süd/Südost
Sichtweite 10 km oder mehr
keine Wolken unter 1500 m und keine Kumulonimbus oder Gewitterwolken

TAF: EDDL 172300Z 1800/1906 15010KT CAVOK

Wetterbeobachtungen und Prognosen von mehr als 4000 Flughäfen (METAR und TAF Bericht).

Die verfügbaren Stationen werden durch gelbe und rote Markierungen auf der Karte dargestellt.

Führen Sie die Maus auf sie, um den Namen der Station zu sehen.

Darauf klicken, um die Beobachtung von Wetterbeobachtungen und Prognosen zu sehen.

Um die Karte zu ändern : klicken Sie auf den grünen Tasten mit einem schwarzen Kreuz Zum Vergrößern, auf den grünen Button mit einem Gedankenstrich zu verkleinern, oder auf die grünen Pfeile für benachbarte Karten.


METAR-TAF: